createdAt,value
2018-08-09T00:04:35.940Z,13.83
2018-08-09T00:10:40.801Z,14.10
2018-08-09T00:16:45.577Z,17.10
2018-08-09T00:22:50.238Z,9.47
2018-08-09T00:28:54.992Z,15.43
2018-08-09T00:34:59.631Z,13.03
2018-08-09T00:41:04.648Z,13.07
2018-08-09T00:47:09.826Z,12.60
2018-08-09T00:53:14.554Z,15.30
2018-08-09T00:59:19.580Z,15.33
2018-08-09T01:05:24.305Z,13.37
2018-08-09T01:11:29.288Z,18.17
2018-08-09T01:17:34.481Z,16.80
2018-08-09T01:23:39.158Z,11.33
2018-08-09T01:29:43.870Z,13.97
2018-08-09T01:35:48.847Z,13.30
2018-08-09T01:42:10.468Z,15.43
2018-08-09T01:48:15.243Z,14.00
2018-08-09T01:54:19.903Z,14.57
2018-08-09T02:00:24.599Z,15.93
2018-08-09T02:06:29.596Z,12.13
2018-08-09T02:12:34.303Z,14.00
2018-08-09T02:18:39.531Z,20.80
2018-08-09T02:24:44.266Z,23.40
2018-08-09T02:30:48.992Z,14.53
2018-08-09T02:36:53.767Z,21.90
2018-08-09T02:42:58.543Z,24.83
2018-08-09T02:49:03.310Z,18.97
2018-08-09T02:55:08.450Z,18.90
2018-08-09T03:01:13.203Z,18.30
2018-08-09T03:07:18.236Z,18.87
2018-08-09T03:13:22.974Z,21.57
2018-08-09T03:19:27.659Z,14.87
2018-08-09T03:25:32.386Z,14.03
2018-08-09T03:31:37.136Z,14.67
2018-08-09T03:37:41.818Z,15.80
2018-08-09T03:43:46.805Z,15.40
2018-08-09T03:49:51.470Z,14.97
2018-08-09T03:55:56.496Z,19.80
2018-08-09T04:02:01.469Z,18.83
2018-08-09T04:08:06.431Z,19.37
2018-08-09T04:14:11.530Z,17.40
2018-08-09T04:20:16.319Z,17.33
2018-08-09T04:26:21.234Z,21.47
2018-08-09T04:32:25.876Z,17.90
2018-08-09T04:38:30.968Z,16.70
2018-08-09T04:44:36.078Z,17.67
2018-08-09T04:50:40.859Z,16.70
2018-08-09T04:56:45.542Z,22.40
2018-08-09T05:02:50.433Z,21.83
2018-08-09T05:08:55.099Z,21.90
2018-08-09T05:15:00.489Z,24.43
2018-08-09T05:21:05.510Z,20.93
2018-08-09T05:27:10.284Z,14.50
2018-08-09T05:33:15.089Z,19.80
2018-08-09T05:39:19.735Z,20.40
2018-08-09T05:45:24.428Z,17.73
2018-08-09T05:51:29.102Z,17.77
2018-08-09T05:57:34.373Z,25.90
2018-08-09T06:03:39.120Z,27.83
2018-08-09T06:09:43.746Z,20.37
2018-08-09T06:15:48.483Z,16.30
2018-08-09T06:21:53.266Z,23.17
2018-08-09T06:27:57.924Z,18.07
2018-08-09T06:34:02.814Z,22.27
2018-08-09T06:40:12.906Z,18.03
2018-08-09T06:46:17.586Z,19.97
2018-08-09T06:52:22.316Z,16.50
2018-08-09T06:58:27.054Z,17.17
2018-08-09T07:04:32.867Z,18.00
2018-08-09T07:10:37.659Z,18.90
2018-08-09T07:16:42.488Z,15.33
2018-08-09T07:22:47.998Z,18.63
2018-08-09T07:28:53.044Z,13.93
2018-08-09T07:34:57.805Z,19.70
2018-08-09T07:41:04.871Z,21.03
2018-08-09T07:47:09.847Z,14.57
2018-08-09T07:53:14.624Z,20.33
2018-08-09T07:59:19.353Z,20.13
2018-08-09T08:05:24.049Z,15.93
2018-08-09T08:11:28.784Z,16.10
2018-08-09T08:17:33.712Z,15.73
2018-08-09T08:23:38.491Z,19.40
2018-08-09T08:29:43.185Z,23.57
2018-08-09T08:35:47.852Z,17.20
2018-08-09T08:41:52.585Z,18.33
2018-08-09T08:47:57.532Z,14.27
2018-08-09T08:54:03.311Z,22.20
2018-08-09T09:00:10.676Z,12.77
2018-08-09T09:06:15.448Z,13.33
2018-08-09T09:12:20.194Z,14.67
2018-08-09T09:18:25.079Z,19.33
2018-08-09T09:24:30.337Z,13.00
2018-08-09T09:30:35.703Z,13.33
2018-08-09T09:36:40.462Z,13.13
2018-08-09T09:42:45.192Z,11.80
2018-08-09T09:48:49.928Z,11.33
2018-08-09T09:54:54.654Z,10.53
2018-08-09T10:01:04.705Z,9.83
2018-08-09T10:07:09.453Z,11.33
2018-08-09T10:13:14.181Z,17.50
2018-08-09T10:19:18.904Z,12.37
2018-08-09T10:25:23.583Z,10.70
2018-08-09T10:31:28.276Z,16.20
2018-08-09T10:37:34.112Z,13.00
2018-08-09T10:43:38.785Z,14.80
2018-08-09T10:49:43.509Z,9.03
2018-08-09T10:55:48.215Z,14.70
2018-08-09T11:01:52.979Z,10.00
2018-08-09T11:07:57.766Z,12.63
2018-08-09T11:14:03.119Z,11.33
2018-08-09T11:20:08.119Z,16.00
2018-08-09T11:26:12.835Z,10.37
2018-08-09T11:32:17.602Z,13.23
2018-08-09T11:38:22.535Z,10.57
2018-08-09T11:44:27.315Z,21.20
2018-08-09T11:50:32.002Z,13.97
2018-08-09T11:56:36.956Z,13.60
2018-08-09T12:02:41.667Z,13.47
2018-08-09T12:08:46.438Z,14.63
2018-08-09T12:14:51.180Z,12.37
2018-08-09T12:20:56.385Z,17.43
2018-08-09T12:27:01.145Z,13.63
2018-08-09T12:33:06.149Z,15.23
2018-08-09T12:39:12.821Z,18.13
2018-08-09T12:45:18.362Z,20.90
2018-08-09T12:51:23.150Z,17.87
2018-08-09T12:57:27.823Z,11.33
2018-08-09T13:03:32.686Z,24.77
2018-08-09T13:09:37.486Z,11.50
2018-08-09T13:15:42.246Z,12.20
2018-08-09T13:21:47.084Z,16.00
2018-08-09T13:27:51.802Z,12.83
2018-08-09T13:33:56.727Z,12.30
2018-08-09T13:40:02.921Z,23.13
2018-08-09T13:46:08.114Z,17.00
2018-08-09T13:52:13.336Z,8.20
2018-08-09T13:58:18.257Z,7.90
2018-08-09T14:04:23.035Z,17.53
2018-08-09T14:10:27.755Z,11.40
2018-08-09T14:16:33.565Z,15.47
2018-08-09T14:22:38.479Z,14.07
2018-08-09T14:28:43.209Z,11.03
2018-08-09T14:34:47.990Z,12.13
2018-08-09T14:40:52.709Z,13.67
2018-08-09T14:46:57.475Z,14.40
2018-08-09T14:53:02.602Z,9.37
2018-08-09T14:59:07.393Z,12.20
2018-08-09T15:05:12.079Z,21.50
2018-08-09T15:11:16.700Z,11.70
2018-08-09T15:17:21.381Z,14.10
2018-08-09T15:23:26.221Z,14.00
2018-08-09T15:29:31.124Z,10.47
2018-08-09T15:35:36.145Z,16.17
2018-08-09T15:41:41.577Z,9.77
2018-08-09T15:47:46.897Z,17.23
2018-08-09T15:53:51.564Z,16.93
2018-08-09T15:59:56.291Z,30.43
2018-08-09T16:06:02.545Z,15.30
2018-08-09T16:12:07.461Z,17.00
2018-08-09T16:18:12.241Z,9.80
2018-08-09T16:24:17.023Z,14.70
2018-08-09T16:30:25.049Z,9.70
2018-08-09T16:36:29.960Z,11.60
2018-08-09T16:42:35.128Z,12.37
2018-08-09T16:48:39.980Z,14.87
2018-08-09T16:54:44.824Z,18.77
2018-08-09T17:00:49.883Z,13.70
2018-08-09T17:06:54.767Z,11.23
2018-08-09T17:12:59.612Z,7.80
2018-08-09T17:19:04.376Z,6.30
2018-08-09T17:25:10.679Z,19.20
2018-08-09T17:31:15.437Z,12.87
2018-08-09T17:37:20.296Z,8.20
2018-08-09T17:43:25.252Z,9.13
2018-08-09T17:49:30.240Z,9.50
2018-08-09T17:55:35.371Z,8.00
2018-08-09T18:01:40.117Z,8.07
2018-08-09T18:07:44.849Z,5.20
2018-08-09T18:13:49.937Z,3.93
2018-08-09T18:19:54.809Z,9.40
2018-08-09T18:25:59.837Z,7.10
2018-08-09T18:32:05.061Z,4.60
2018-08-09T18:38:10.289Z,8.90
2018-08-09T18:44:15.348Z,4.93
2018-08-09T18:50:22.489Z,3.67
2018-08-09T18:56:27.593Z,4.77
2018-08-09T19:02:32.465Z,5.90
2018-08-09T19:08:37.212Z,8.03
2018-08-09T19:14:41.992Z,5.60
2018-08-09T19:20:46.763Z,5.23
2018-08-09T19:26:51.555Z,8.83
2018-08-09T19:32:56.642Z,6.30
2018-08-09T19:39:01.572Z,8.67
2018-08-09T19:45:11.210Z,4.57
2018-08-09T19:51:16.093Z,5.87
2018-08-09T19:57:20.974Z,4.33
2018-08-09T20:03:26.118Z,6.30
2018-08-09T20:09:31.034Z,6.40
2018-08-09T20:15:35.819Z,4.40
2018-08-09T20:21:40.642Z,8.07
2018-08-09T20:27:46.056Z,6.10
2018-08-09T20:33:50.741Z,5.03
2018-08-09T20:39:55.479Z,4.40
2018-08-09T20:46:00.609Z,8.73
2018-08-09T20:52:06.484Z,5.63
2018-08-09T20:58:11.298Z,6.73
2018-08-09T21:04:16.259Z,2.90
2018-08-09T21:10:21.288Z,8.67
2018-08-09T21:16:26.046Z,5.70
2018-08-09T21:22:31.548Z,3.60
2018-08-09T21:28:36.325Z,3.23
2018-08-09T21:34:41.182Z,6.90
2018-08-09T21:40:45.979Z,4.00
2018-08-09T21:46:50.662Z,2.50
2018-08-09T21:52:55.376Z,4.93
2018-08-09T21:59:00.202Z,5.10
2018-08-09T22:05:10.306Z,3.70
2018-08-09T22:11:20.368Z,7.63
2018-08-09T22:17:30.660Z,3.40
2018-08-09T22:23:41.232Z,3.97
2018-08-09T22:29:45.959Z,3.63
2018-08-09T22:35:51.160Z,3.20
2018-08-09T22:41:55.847Z,2.60
2018-08-09T22:48:01.191Z,3.07
2018-08-09T22:54:06.610Z,2.83
2018-08-09T23:00:24.480Z,2.80
2018-08-09T23:06:31.841Z,7.90
2018-08-09T23:12:37.069Z,5.27
2018-08-09T23:18:41.856Z,4.80
2018-08-09T23:24:46.659Z,3.33
2018-08-09T23:30:51.318Z,3.67
2018-08-09T23:36:56.011Z,2.50
2018-08-09T23:43:01.107Z,1.73
2018-08-09T23:49:06.484Z,2.70
2018-08-09T23:55:18.170Z,4.33
